sensor_id;sensor_type;location;lat;lon;timestamp;pressure;altitude;pressure_sealevel;temperature;humidity
51227;BME280;42714;48.260;10.980;2023-06-14T00:00:02;965.5;;;16.4;57.3
51227;BME280;42714;48.260;10.980;2023-06-14T00:05:03;965.5;;;16.5;56.9
51227;BME280;42714;48.260;10.980;2023-06-14T00:15:06;965.5;;;16.4;54.8
51227;BME280;42714;48.260;10.980;2023-06-14T00:20:06;965.5;;;16.2;56.3
51227;BME280;42714;48.260;10.980;2023-06-14T00:25:07;965.4;;;16.1;58.2
51227;BME280;42714;48.260;10.980;2023-06-14T00:35:09;965.4;;;15.8;60.0
51227;BME280;42714;48.260;10.980;2023-06-14T00:40:10;965.4;;;15.6;60.5
51227;BME280;42714;48.260;10.980;2023-06-14T00:45:12;965.5;;;15.7;62.4
51227;BME280;42714;48.260;10.980;2023-06-14T00:50:12;965.5;;;15.8;61.7
51227;BME280;42714;48.260;10.980;2023-06-14T00:55:13;965.5;;;15.9;61.8
51227;BME280;42714;48.260;10.980;2023-06-14T01:00:14;965.5;;;15.9;62.1
51227;BME280;42714;48.260;10.980;2023-06-14T01:05:15;965.5;;;15.9;62.7
51227;BME280;42714;48.260;10.980;2023-06-14T01:10:20;965.4;;;16.0;64.5
51227;BME280;42714;48.260;10.980;2023-06-14T01:15:17;965.4;;;16.0;64.1
51227;BME280;42714;48.260;10.980;2023-06-14T01:20:19;965.4;;;15.9;63.7
51227;BME280;42714;48.260;10.980;2023-06-14T01:25:19;965.4;;;15.9;65.2
51227;BME280;42714;48.260;10.980;2023-06-14T01:30:21;965.4;;;15.9;65.0
51227;BME280;42714;48.260;10.980;2023-06-14T01:35:21;965.4;;;15.9;65.5
51227;BME280;42714;48.260;10.980;2023-06-14T01:40:22;965.4;;;15.8;65.5
51227;BME280;42714;48.260;10.980;2023-06-14T01:45:23;965.4;;;15.6;67.0
51227;BME280;42714;48.260;10.980;2023-06-14T01:50:27;965.4;;;15.5;68.0
51227;BME280;42714;48.260;10.980;2023-06-14T01:55:25;965.3;;;15.4;69.3
51227;BME280;42714;48.260;10.980;2023-06-14T02:00:26;965.4;;;15.4;69.1
51227;BME280;42714;48.260;10.980;2023-06-14T02:05:27;965.4;;;15.3;70.0
51227;BME280;42714;48.260;10.980;2023-06-14T02:10:28;965.4;;;15.3;71.0
51227;BME280;42714;48.260;10.980;2023-06-14T02:15:29;965.4;;;15.3;72.5
51227;BME280;42714;48.260;10.980;2023-06-14T02:20:30;965.4;;;15.2;73.0
51227;BME280;42714;48.260;10.980;2023-06-14T02:25:31;965.4;;;15.2;74.0
51227;BME280;42714;48.260;10.980;2023-06-14T02:30:32;965.4;;;15.2;76.2
51227;BME280;42714;48.260;10.980;2023-06-14T02:35:33;965.4;;;15.1;75.3
51227;BME280;42714;48.260;10.980;2023-06-14T02:40:34;965.4;;;15.1;74.8
51227;BME280;42714;48.260;10.980;2023-06-14T02:45:35;965.4;;;14.9;75.0
51227;BME280;42714;48.260;10.980;2023-06-14T02:50:36;965.4;;;14.8;76.6
51227;BME280;42714;48.260;10.980;2023-06-14T02:55:37;965.4;;;14.8;76.9
51227;BME280;42714;48.260;10.980;2023-06-14T03:00:38;965.5;;;14.9;76.2
51227;BME280;42714;48.260;10.980;2023-06-14T03:05:41;965.4;;;14.9;75.7
51227;BME280;42714;48.260;10.980;2023-06-14T03:10:40;965.4;;;14.8;76.1
51227;BME280;42714;48.260;10.980;2023-06-14T03:15:42;965.5;;;14.8;76.9
51227;BME280;42714;48.260;10.980;2023-06-14T03:20:42;965.5;;;14.7;77.2
51227;BME280;42714;48.260;10.980;2023-06-14T03:25:43;965.5;;;14.6;77.7
51227;BME280;42714;48.260;10.980;2023-06-14T03:30:44;965.5;;;14.5;78.3
51227;BME280;42714;48.260;10.980;2023-06-14T03:35:45;965.5;;;14.3;79.2
51227;BME280;42714;48.260;10.980;2023-06-14T03:40:46;965.5;;;14.1;81.7
51227;BME280;42714;48.260;10.980;2023-06-14T03:45:47;965.6;;;14.1;83.0
51227;BME280;42714;48.260;10.980;2023-06-14T03:50:48;965.7;;;14.1;83.7
51227;BME280;42714;48.260;10.980;2023-06-14T03:55:50;965.8;;;14.1;85.9
51227;BME280;42714;48.260;10.980;2023-06-14T04:00:50;965.8;;;14.1;88.2
51227;BME280;42714;48.260;10.980;2023-06-14T04:05:51;965.8;;;14.2;87.9
51227;BME280;42714;48.260;10.980;2023-06-14T04:10:52;965.9;;;14.3;86.7
51227;BME280;42714;48.260;10.980;2023-06-14T04:15:53;965.9;;;14.4;87.1
51227;BME280;42714;48.260;10.980;2023-06-14T04:20:54;966.0;;;14.4;87.3
51227;BME280;42714;48.260;10.980;2023-06-14T04:25:55;966.0;;;14.4;88.4
51227;BME280;42714;48.260;10.980;2023-06-14T04:30:57;966.0;;;14.5;88.6
51227;BME280;42714;48.260;10.980;2023-06-14T04:35:57;966.0;;;14.6;87.0
51227;BME280;42714;48.260;10.980;2023-06-14T04:40:58;966.1;;;14.7;84.9
51227;BME280;42714;48.260;10.980;2023-06-14T04:45:59;966.1;;;14.8;82.0
51227;BME280;42714;48.260;10.980;2023-06-14T04:51:00;966.2;;;15.0;82.0
51227;BME280;42714;48.260;10.980;2023-06-14T04:56:01;966.2;;;15.2;79.4
51227;BME280;42714;48.260;10.980;2023-06-14T05:01:02;966.2;;;15.5;76.0
51227;BME280;42714;48.260;10.980;2023-06-14T05:06:03;966.2;;;15.6;73.0
51227;BME280;42714;48.260;10.980;2023-06-14T05:11:04;966.3;;;15.9;76.5
51227;BME280;42714;48.260;10.980;2023-06-14T05:16:05;966.3;;;16.2;75.8
51227;BME280;42714;48.260;10.980;2023-06-14T05:21:06;966.3;;;16.5;71.3
51227;BME280;42714;48.260;10.980;2023-06-14T05:26:07;966.3;;;16.7;74.6
51227;BME280;42714;48.260;10.980;2023-06-14T05:31:08;966.3;;;17.0;76.2
51227;BME280;42714;48.260;10.980;2023-06-14T05:36:09;966.4;;;17.3;74.0
51227;BME280;42714;48.260;10.980;2023-06-14T05:41:10;966.5;;;17.5;69.0
51227;BME280;42714;48.260;10.980;2023-06-14T05:46:11;966.5;;;17.6;66.4
51227;BME280;42714;48.260;10.980;2023-06-14T05:51:12;966.4;;;17.9;63.1
51227;BME280;42714;48.260;10.980;2023-06-14T05:56:14;966.4;;;18.1;60.4
51227;BME280;42714;48.260;10.980;2023-06-14T06:01:14;966.5;;;18.3;57.6
51227;BME280;42714;48.260;10.980;2023-06-14T06:06:15;966.5;;;18.6;58.4
51227;BME280;42714;48.260;10.980;2023-06-14T06:11:16;966.5;;;18.8;55.3
51227;BME280;42714;48.260;10.980;2023-06-14T06:16:17;966.6;;;19.0;55.2
51227;BME280;42714;48.260;10.980;2023-06-14T06:21:18;966.6;;;18.8;51.5
51227;BME280;42714;48.260;10.980;2023-06-14T06:26:21;966.6;;;18.8;55.7
51227;BME280;42714;48.260;10.980;2023-06-14T06:31:20;966.6;;;19.1;54.4
51227;BME280;42714;48.260;10.980;2023-06-14T06:36:22;966.6;;;19.7;52.8
51227;BME280;42714;48.260;10.980;2023-06-14T06:41:22;966.6;;;20.5;45.6
51227;BME280;42714;48.260;10.980;2023-06-14T06:46:23;966.6;;;20.3;45.8
51227;BME280;42714;48.260;10.980;2023-06-14T06:51:24;966.7;;;20.4;47.3
51227;BME280;42714;48.260;10.980;2023-06-14T06:56:25;966.7;;;21.0;46.5
51227;BME280;42714;48.260;10.980;2023-06-14T07:01:26;966.6;;;21.9;45.6
51227;BME280;42714;48.260;10.980;2023-06-14T07:06:27;966.6;;;22.8;39.6
51227;BME280;42714;48.260;10.980;2023-06-14T07:11:28;966.7;;;22.8;40.7
51227;BME280;42714;48.260;10.980;2023-06-14T07:16:29;966.7;;;22.7;41.1
51227;BME280;42714;48.260;10.980;2023-06-14T07:21:30;966.8;;;22.4;40.6
51227;BME280;42714;48.260;10.980;2023-06-14T07:26:32;966.7;;;21.9;42.4
51227;BME280;42714;48.260;10.980;2023-06-14T07:31:32;966.8;;;22.3;41.6
51227;BME280;42714;48.260;10.980;2023-06-14T07:36:33;966.9;;;22.7;42.9
51227;BME280;42714;48.260;10.980;2023-06-14T07:41:35;966.9;;;23.3;42.1
51227;BME280;42714;48.260;10.980;2023-06-14T07:46:36;966.9;;;23.8;39.5
51227;BME280;42714;48.260;10.980;2023-06-14T07:51:37;966.9;;;24.5;37.6
51227;BME280;42714;48.260;10.980;2023-06-14T07:56:38;966.9;;;24.5;37.2
51227;BME280;42714;48.260;10.980;2023-06-14T08:01:39;967.0;;;24.8;34.6
51227;BME280;42714;48.260;10.980;2023-06-14T08:06:40;966.9;;;25.0;36.9
51227;BME280;42714;48.260;10.980;2023-06-14T08:11:41;966.9;;;25.5;32.7
51227;BME280;42714;48.260;10.980;2023-06-14T08:16:42;966.9;;;25.8;34.6
51227;BME280;42714;48.260;10.980;2023-06-14T08:21:43;966.9;;;26.4;32.6
51227;BME280;42714;48.260;10.980;2023-06-14T08:26:44;966.9;;;27.2;31.9
51227;BME280;42714;48.260;10.980;2023-06-14T08:31:45;966.9;;;28.1;29.5
51227;BME280;42714;48.260;10.980;2023-06-14T08:36:46;966.9;;;28.5;28.2
51227;BME280;42714;48.260;10.980;2023-06-14T08:41:47;966.9;;;28.5;27.5
51227;BME280;42714;48.260;10.980;2023-06-14T08:46:48;967.0;;;28.4;26.0
51227;BME280;42714;48.260;10.980;2023-06-14T08:51:50;967.0;;;27.7;28.0
51227;BME280;42714;48.260;10.980;2023-06-14T08:56:50;967.0;;;27.7;26.5
51227;BME280;42714;48.260;10.980;2023-06-14T09:01:51;967.0;;;27.6;26.8
51227;BME280;42714;48.260;10.980;2023-06-14T09:06:52;967.0;;;27.0;28.1
51227;BME280;42714;48.260;10.980;2023-06-14T09:11:53;967.1;;;26.7;29.0
51227;BME280;42714;48.260;10.980;2023-06-14T09:16:54;967.1;;;26.5;27.4
51227;BME280;42714;48.260;10.980;2023-06-14T09:21:55;967.1;;;26.1;28.7
51227;BME280;42714;48.260;10.980;2023-06-14T09:26:56;967.2;;;25.9;28.6
51227;BME280;42714;48.260;10.980;2023-06-14T09:31:57;967.2;;;25.8;28.8
51227;BME280;42714;48.260;10.980;2023-06-14T09:36:58;967.2;;;25.6;29.1
51227;BME280;42714;48.260;10.980;2023-06-14T09:41:59;967.2;;;25.4;30.7
51227;BME280;42714;48.260;10.980;2023-06-14T09:47:00;967.3;;;25.1;29.1
51227;BME280;42714;48.260;10.980;2023-06-14T09:52:01;967.4;;;25.1;30.2
51227;BME280;42714;48.260;10.980;2023-06-14T09:57:02;967.3;;;25.4;29.9
51227;BME280;42714;48.260;10.980;2023-06-14T10:02:05;967.3;;;25.6;29.0
51227;BME280;42714;48.260;10.980;2023-06-14T10:07:04;967.2;;;25.8;28.5
51227;BME280;42714;48.260;10.980;2023-06-14T10:12:05;967.2;;;25.9;28.7
51227;BME280;42714;48.260;10.980;2023-06-14T10:17:08;967.1;;;26.2;28.4
51227;BME280;42714;48.260;10.980;2023-06-14T10:22:09;967.2;;;26.3;28.1
51227;BME280;42714;48.260;10.980;2023-06-14T10:27:08;967.1;;;26.3;28.0
51227;BME280;42714;48.260;10.980;2023-06-14T10:32:09;967.1;;;25.9;26.9
51227;BME280;42714;48.260;10.980;2023-06-14T10:37:10;967.1;;;25.9;28.0
51227;BME280;42714;48.260;10.980;2023-06-14T10:42:11;967.1;;;26.0;27.7
51227;BME280;42714;48.260;10.980;2023-06-14T10:52:14;967.1;;;26.3;26.6
51227;BME280;42714;48.260;10.980;2023-06-14T10:57:14;967.1;;;26.4;28.4
51227;BME280;42714;48.260;10.980;2023-06-14T11:12:17;967.1;;;26.3;26.7
51227;BME280;42714;48.260;10.980;2023-06-14T11:17:18;967.1;;;26.0;28.6
51227;BME280;42714;48.260;10.980;2023-06-14T11:22:19;967.1;;;26.0;29.1
51227;BME280;42714;48.260;10.980;2023-06-14T11:27:20;967.1;;;26.3;28.9
51227;BME280;42714;48.260;10.980;2023-06-14T11:32:21;967.0;;;26.4;28.4
51227;BME280;42714;48.260;10.980;2023-06-14T11:37:22;967.0;;;26.8;28.6
51227;BME280;42714;48.260;10.980;2023-06-14T11:42:24;966.9;;;26.9;26.8
51227;BME280;42714;48.260;10.980;2023-06-14T11:47:24;966.8;;;26.8;26.7
51227;BME280;42714;48.260;10.980;2023-06-14T11:52:25;966.9;;;26.8;26.2
51227;BME280;42714;48.260;10.980;2023-06-14T11:57:26;966.9;;;26.6;26.4
51227;BME280;42714;48.260;10.980;2023-06-14T12:02:27;966.8;;;26.7;26.6
51227;BME280;42714;48.260;10.980;2023-06-14T12:07:28;966.9;;;27.3;26.4
51227;BME280;42714;48.260;10.980;2023-06-14T12:12:29;966.8;;;28.0;24.7
51227;BME280;42714;48.260;10.980;2023-06-14T12:17:34;966.8;;;28.2;24.9
51227;BME280;42714;48.260;10.980;2023-06-14T12:22:31;966.8;;;28.5;25.0
51227;BME280;42714;48.260;10.980;2023-06-14T12:27:32;966.9;;;28.3;24.0
51227;BME280;42714;48.260;10.980;2023-06-14T12:32:33;966.8;;;28.0;24.9
51227;BME280;42714;48.260;10.980;2023-06-14T12:37:34;966.8;;;28.0;25.0
51227;BME280;42714;48.260;10.980;2023-06-14T12:42:35;966.9;;;27.9;24.0
51227;BME280;42714;48.260;10.980;2023-06-14T12:47:36;966.9;;;27.5;25.5
51227;BME280;42714;48.260;10.980;2023-06-14T12:52:37;966.9;;;27.0;26.7
51227;BME280;42714;48.260;10.980;2023-06-14T12:57:38;966.9;;;26.9;26.9
51227;BME280;42714;48.260;10.980;2023-06-14T13:02:39;967.0;;;27.1;25.5
51227;BME280;42714;48.260;10.980;2023-06-14T13:07:40;967.0;;;26.8;26.0
51227;BME280;42714;48.260;10.980;2023-06-14T13:12:41;967.0;;;26.9;26.7
51227;BME280;42714;48.260;10.980;2023-06-14T13:17:42;967.0;;;27.2;26.9
51227;BME280;42714;48.260;10.980;2023-06-14T13:22:43;966.9;;;27.2;26.7
51227;BME280;42714;48.260;10.980;2023-06-14T13:27:44;966.9;;;27.1;26.6
51227;BME280;42714;48.260;10.980;2023-06-14T13:32:45;966.9;;;27.0;26.6
51227;BME280;42714;48.260;10.980;2023-06-14T13:37:46;966.9;;;26.9;26.8
51227;BME280;42714;48.260;10.980;2023-06-14T13:42:47;966.8;;;26.7;26.5
51227;BME280;42714;48.260;10.980;2023-06-14T13:47:48;966.8;;;26.5;26.5
51227;BME280;42714;48.260;10.980;2023-06-14T13:52:49;966.9;;;26.1;27.3
51227;BME280;42714;48.260;10.980;2023-06-14T13:57:50;966.9;;;26.2;26.5
51227;BME280;42714;48.260;10.980;2023-06-14T14:02:51;966.8;;;26.5;25.9
51227;BME280;42714;48.260;10.980;2023-06-14T14:07:52;966.8;;;26.5;27.1
51227;BME280;42714;48.260;10.980;2023-06-14T14:12:53;966.8;;;26.5;27.0
51227;BME280;42714;48.260;10.980;2023-06-14T14:17:55;966.8;;;26.5;27.5
51227;BME280;42714;48.260;10.980;2023-06-14T14:22:55;966.9;;;26.2;27.5
51227;BME280;42714;48.260;10.980;2023-06-14T14:27:56;966.9;;;25.8;27.6
51227;BME280;42714;48.260;10.980;2023-06-14T14:32:57;966.9;;;25.7;27.2
51227;BME280;42714;48.260;10.980;2023-06-14T14:37:58;966.9;;;25.7;27.9
51227;BME280;42714;48.260;10.980;2023-06-14T14:42:59;966.9;;;25.5;27.0
51227;BME280;42714;48.260;10.980;2023-06-14T14:48:00;966.9;;;25.5;27.8
51227;BME280;42714;48.260;10.980;2023-06-14T14:53:01;966.9;;;25.7;27.8
51227;BME280;42714;48.260;10.980;2023-06-14T14:58:02;966.9;;;25.6;27.1
51227;BME280;42714;48.260;10.980;2023-06-14T15:03:03;966.9;;;25.4;27.8
51227;BME280;42714;48.260;10.980;2023-06-14T15:08:04;967.0;;;25.3;28.3
51227;BME280;42714;48.260;10.980;2023-06-14T15:13:05;967.0;;;25.2;27.8
51227;BME280;42714;48.260;10.980;2023-06-14T15:18:06;967.0;;;25.1;28.8
51227;BME280;42714;48.260;10.980;2023-06-14T15:23:07;967.0;;;25.1;29.8
51227;BME280;42714;48.260;10.980;2023-06-14T15:28:08;967.0;;;25.1;29.9
51227;BME280;42714;48.260;10.980;2023-06-14T15:33:09;967.1;;;25.1;29.2
51227;BME280;42714;48.260;10.980;2023-06-14T15:38:10;967.1;;;24.9;29.8
51227;BME280;42714;48.260;10.980;2023-06-14T15:43:11;967.0;;;24.8;30.0
51227;BME280;42714;48.260;10.980;2023-06-14T15:48:12;967.0;;;24.6;29.8
51227;BME280;42714;48.260;10.980;2023-06-14T15:53:13;967.0;;;24.6;29.6
51227;BME280;42714;48.260;10.980;2023-06-14T15:58:14;967.0;;;24.5;29.7
51227;BME280;42714;48.260;10.980;2023-06-14T16:03:15;967.0;;;24.4;30.5
51227;BME280;42714;48.260;10.980;2023-06-14T16:08:16;967.0;;;24.3;30.5
51227;BME280;42714;48.260;10.980;2023-06-14T16:13:17;967.1;;;24.1;31.3
51227;BME280;42714;48.260;10.980;2023-06-14T16:18:18;967.1;;;24.2;31.5
51227;BME280;42714;48.260;10.980;2023-06-14T16:23:19;967.1;;;24.1;31.7
51227;BME280;42714;48.260;10.980;2023-06-14T16:28:20;967.1;;;24.0;32.7
51227;BME280;42714;48.260;10.980;2023-06-14T16:33:21;967.2;;;23.9;32.5
51227;BME280;42714;48.260;10.980;2023-06-14T16:38:22;967.2;;;23.8;33.1
51227;BME280;42714;48.260;10.980;2023-06-14T16:43:23;967.2;;;23.8;32.9
51227;BME280;42714;48.260;10.980;2023-06-14T16:48:24;967.3;;;23.7;33.0
51227;BME280;42714;48.260;10.980;2023-06-14T16:53:26;967.3;;;23.7;32.8
51227;BME280;42714;48.260;10.980;2023-06-14T16:58:26;967.4;;;23.7;32.5
51227;BME280;42714;48.260;10.980;2023-06-14T17:03:27;967.4;;;23.7;32.7
51227;BME280;42714;48.260;10.980;2023-06-14T17:08:28;967.4;;;23.6;33.0
51227;BME280;42714;48.260;10.980;2023-06-14T17:13:29;967.6;;;23.5;33.4
51227;BME280;42714;48.260;10.980;2023-06-14T17:18:30;967.6;;;23.4;33.5
51227;BME280;42714;48.260;10.980;2023-06-14T17:23:31;967.6;;;23.3;34.2
51227;BME280;42714;48.260;10.980;2023-06-14T17:28:33;967.6;;;23.2;34.6
51227;BME280;42714;48.260;10.980;2023-06-14T17:33:33;967.7;;;23.2;35.0
51227;BME280;42714;48.260;10.980;2023-06-14T17:38:34;967.8;;;23.0;35.6
51227;BME280;42714;48.260;10.980;2023-06-14T17:43:36;967.8;;;23.0;35.5
51227;BME280;42714;48.260;10.980;2023-06-14T17:48:36;967.9;;;22.9;36.0
51227;BME280;42714;48.260;10.980;2023-06-14T17:53:37;967.9;;;22.8;36.6
51227;BME280;42714;48.260;10.980;2023-06-14T17:58:38;968.0;;;22.7;36.8
51227;BME280;42714;48.260;10.980;2023-06-14T18:03:39;968.0;;;22.6;37.2
51227;BME280;42714;48.260;10.980;2023-06-14T18:08:40;968.0;;;22.6;37.4
51227;BME280;42714;48.260;10.980;2023-06-14T18:13:41;968.1;;;22.5;37.9
51227;BME280;42714;48.260;10.980;2023-06-14T18:18:42;968.2;;;22.5;38.7
51227;BME280;42714;48.260;10.980;2023-06-14T18:23:43;968.2;;;22.4;39.4
51227;BME280;42714;48.260;10.980;2023-06-14T18:28:44;968.2;;;22.4;39.2
51227;BME280;42714;48.260;10.980;2023-06-14T18:33:45;968.3;;;22.3;39.3
51227;BME280;42714;48.260;10.980;2023-06-14T18:38:46;968.2;;;22.1;39.7
51227;BME280;42714;48.260;10.980;2023-06-14T18:43:47;968.3;;;22.0;39.6
51227;BME280;42714;48.260;10.980;2023-06-14T18:48:48;968.4;;;22.0;40.1
51227;BME280;42714;48.260;10.980;2023-06-14T18:53:49;968.4;;;21.9;40.2
51227;BME280;42714;48.260;10.980;2023-06-14T18:58:50;968.4;;;21.9;40.4
51227;BME280;42714;48.260;10.980;2023-06-14T19:03:51;968.5;;;21.9;40.8
51227;BME280;42714;48.260;10.980;2023-06-14T19:08:52;968.5;;;21.8;40.8
51227;BME280;42714;48.260;10.980;2023-06-14T19:13:53;968.5;;;21.8;40.5
51227;BME280;42714;48.260;10.980;2023-06-14T19:18:54;968.5;;;21.7;40.6
51227;BME280;42714;48.260;10.980;2023-06-14T19:23:55;968.5;;;21.5;41.3
51227;BME280;42714;48.260;10.980;2023-06-14T19:28:56;968.6;;;21.5;41.3
51227;BME280;42714;48.260;10.980;2023-06-14T19:33:57;968.7;;;21.4;41.7
51227;BME280;42714;48.260;10.980;2023-06-14T19:38:58;968.8;;;21.4;42.2
51227;BME280;42714;48.260;10.980;2023-06-14T19:43:59;968.8;;;21.4;42.6
51227;BME280;42714;48.260;10.980;2023-06-14T19:49:00;968.9;;;21.3;42.6
51227;BME280;42714;48.260;10.980;2023-06-14T19:54:01;968.9;;;21.3;43.1
51227;BME280;42714;48.260;10.980;2023-06-14T19:59:02;969.0;;;21.2;43.5
51227;BME280;42714;48.260;10.980;2023-06-14T20:04:03;969.0;;;21.2;44.4
51227;BME280;42714;48.260;10.980;2023-06-14T20:09:04;969.0;;;21.1;45.6
51227;BME280;42714;48.260;10.980;2023-06-14T20:14:05;969.1;;;21.0;44.9
51227;BME280;42714;48.260;10.980;2023-06-14T20:19:06;969.1;;;20.9;45.8
51227;BME280;42714;48.260;10.980;2023-06-14T20:24:07;969.0;;;20.9;45.5
51227;BME280;42714;48.260;10.980;2023-06-14T20:29:08;969.1;;;20.8;45.8
51227;BME280;42714;48.260;10.980;2023-06-14T20:34:09;969.0;;;20.6;46.5
51227;BME280;42714;48.260;10.980;2023-06-14T20:39:10;969.1;;;20.5;47.3
51227;BME280;42714;48.260;10.980;2023-06-14T20:44:11;969.1;;;20.5;48.0
51227;BME280;42714;48.260;10.980;2023-06-14T20:49:12;969.0;;;20.5;48.5
51227;BME280;42714;48.260;10.980;2023-06-14T20:54:13;969.1;;;20.4;48.5
51227;BME280;42714;48.260;10.980;2023-06-14T20:59:14;969.1;;;20.4;48.8
51227;BME280;42714;48.260;10.980;2023-06-14T21:04:15;969.1;;;20.4;49.4
51227;BME280;42714;48.260;10.980;2023-06-14T21:09:16;969.1;;;20.3;49.6
51227;BME280;42714;48.260;10.980;2023-06-14T21:14:17;969.1;;;20.3;50.5
51227;BME280;42714;48.260;10.980;2023-06-14T21:19:18;969.2;;;20.3;50.3
51227;BME280;42714;48.260;10.980;2023-06-14T21:24:19;969.1;;;20.2;50.0
51227;BME280;42714;48.260;10.980;2023-06-14T21:29:20;969.1;;;20.1;50.4
51227;BME280;42714;48.260;10.980;2023-06-14T21:34:21;969.1;;;20.1;51.4
51227;BME280;42714;48.260;10.980;2023-06-14T21:39:22;969.2;;;20.1;52.5
51227;BME280;42714;48.260;10.980;2023-06-14T21:44:23;969.2;;;20.0;52.7
51227;BME280;42714;48.260;10.980;2023-06-14T21:49:24;969.2;;;19.9;52.9
51227;BME280;42714;48.260;10.980;2023-06-14T21:54:25;969.2;;;19.9;53.0
51227;BME280;42714;48.260;10.980;2023-06-14T21:59:26;969.2;;;19.8;53.4
51227;BME280;42714;48.260;10.980;2023-06-14T22:04:27;969.3;;;19.8;54.2
51227;BME280;42714;48.260;10.980;2023-06-14T22:09:28;969.3;;;19.7;55.5
51227;BME280;42714;48.260;10.980;2023-06-14T22:14:29;969.3;;;19.6;55.9
51227;BME280;42714;48.260;10.980;2023-06-14T22:19:30;969.2;;;19.5;56.9
51227;BME280;42714;48.260;10.980;2023-06-14T22:24:31;969.3;;;19.5;58.2
51227;BME280;42714;48.260;10.980;2023-06-14T22:29:32;969.3;;;19.4;59.2
51227;BME280;42714;48.260;10.980;2023-06-14T22:34:33;969.3;;;19.3;59.9
51227;BME280;42714;48.260;10.980;2023-06-14T22:39:34;969.3;;;19.2;60.1
51227;BME280;42714;48.260;10.980;2023-06-14T22:44:35;969.2;;;19.1;61.2
51227;BME280;42714;48.260;10.980;2023-06-14T22:49:36;969.2;;;19.0;61.5
51227;BME280;42714;48.260;10.980;2023-06-14T22:54:37;969.2;;;19.0;63.9
51227;BME280;42714;48.260;10.980;2023-06-14T22:59:38;969.2;;;18.9;64.0
51227;BME280;42714;48.260;10.980;2023-06-14T23:04:39;969.2;;;18.9;64.0
51227;BME280;42714;48.260;10.980;2023-06-14T23:09:41;969.2;;;18.8;64.2
51227;BME280;42714;48.260;10.980;2023-06-14T23:14:41;969.2;;;18.8;63.9
51227;BME280;42714;48.260;10.980;2023-06-14T23:19:42;969.2;;;18.7;63.7
51227;BME280;42714;48.260;10.980;2023-06-14T23:24:43;969.2;;;18.7;64.7
51227;BME280;42714;48.260;10.980;2023-06-14T23:29:44;969.2;;;18.6;66.1
51227;BME280;42714;48.260;10.980;2023-06-14T23:34:45;969.2;;;18.4;66.7
51227;BME280;42714;48.260;10.980;2023-06-14T23:39:47;969.1;;;18.3;67.8
51227;BME280;42714;48.260;10.980;2023-06-14T23:44:47;969.2;;;18.2;69.6
51227;BME280;42714;48.260;10.980;2023-06-14T23:49:49;969.2;;;18.1;70.2
51227;BME280;42714;48.260;10.980;2023-06-14T23:54:50;969.1;;;18.1;71.4
51227;BME280;42714;48.260;10.980;2023-06-14T23:59:51;969.2;;;18.2;71.6
